createdAt,value
2023-12-09T00:00:55.959Z,100463.72
2023-12-09T00:03:23.194Z,100463.59
2023-12-09T00:05:50.507Z,100462.44
2023-12-09T00:08:17.745Z,100461.84
2023-12-09T00:10:44.939Z,100464.16
2023-12-09T00:13:12.216Z,100457.22
2023-12-09T00:15:39.354Z,100462.41
2023-12-09T00:18:06.570Z,100458.50
2023-12-09T00:20:33.703Z,100465.63
2023-12-09T00:23:00.666Z,100459.38
2023-12-09T00:25:27.735Z,100457.22
2023-12-09T00:27:54.926Z,100451.13
2023-12-09T00:30:22.623Z,100455.59
2023-12-09T00:32:49.916Z,100448.78
2023-12-09T00:35:17.044Z,100455.97
2023-12-09T00:37:44.056Z,100454.34
2023-12-09T00:40:11.772Z,100456.19
2023-12-09T00:42:39.107Z,100460.13
2023-12-09T00:45:07.205Z,100467.50
2023-12-09T00:47:34.310Z,100464.34
2023-12-09T00:50:02.146Z,100467.94
2023-12-09T00:52:29.721Z,100457.09
2023-12-09T00:54:57.395Z,100450.75
2023-12-09T00:57:26.108Z,100445.34
2023-12-09T00:59:53.239Z,100438.78
2023-12-09T01:02:20.443Z,100435.31
2023-12-09T01:04:47.840Z,100423.09
2023-12-09T01:07:14.963Z,100422.84
2023-12-09T01:09:41.979Z,100426.88
2023-12-09T01:12:09.312Z,100428.38
2023-12-09T01:14:36.448Z,100427.56
2023-12-09T01:17:03.468Z,100422.84
2023-12-09T01:19:30.673Z,100418.13
2023-12-09T01:21:57.728Z,100417.31
2023-12-09T01:24:24.885Z,100424.81
2023-12-09T01:26:52.149Z,100413.59
2023-12-09T01:29:19.124Z,100406.22
2023-12-09T01:31:46.171Z,100400.69
2023-12-09T01:34:13.531Z,100410.63
2023-12-09T01:36:40.711Z,100397.34
2023-12-09T01:39:07.730Z,100402.44
2023-12-09T01:41:34.934Z,100400.00
2023-12-09T01:44:01.959Z,100401.06
2023-12-09T01:46:29.187Z,100390.44
2023-12-09T01:48:57.340Z,100392.50
2023-12-09T01:51:25.172Z,100388.22
2023-12-09T01:53:52.415Z,100383.03
2023-12-09T01:56:21.856Z,100374.28
2023-12-09T01:58:49.131Z,100377.06
2023-12-09T02:01:16.652Z,100373.72
2023-12-09T02:03:44.310Z,100376.38
2023-12-09T02:06:11.351Z,100369.94
2023-12-09T02:08:39.764Z,100366.50
2023-12-09T02:11:17.382Z,100363.16
2023-12-09T02:13:58.297Z,100369.75
2023-12-09T02:16:35.279Z,100372.97
2023-12-09T02:19:03.335Z,100368.94
2023-12-09T02:21:30.498Z,100370.44
2023-12-09T02:23:57.878Z,100368.75
2023-12-09T02:26:29.638Z,100371.84
2023-12-09T02:29:04.621Z,100370.00
2023-12-09T02:31:33.225Z,100375.00
2023-12-09T02:34:03.455Z,100350.34
2023-12-09T02:36:31.586Z,100347.69
2023-12-09T02:38:59.470Z,100361.38
2023-12-09T02:41:28.365Z,100351.81
2023-12-09T02:43:57.405Z,100345.13
2023-12-09T02:46:24.556Z,100349.28
2023-12-09T02:48:51.753Z,100344.09
2023-12-09T02:51:19.035Z,100338.09
2023-12-09T02:53:46.792Z,100336.81
2023-12-09T02:56:13.840Z,100337.53
2023-12-09T02:58:40.968Z,100342.81
2023-12-09T03:01:08.094Z,100332.81
2023-12-09T03:03:35.172Z,100341.78
2023-12-09T03:06:02.398Z,100342.38
2023-12-09T03:08:29.574Z,100343.53
2023-12-09T03:10:56.814Z,100343.88
2023-12-09T03:13:24.781Z,100349.97
2023-12-09T03:15:51.876Z,100362.28
2023-12-09T03:18:19.044Z,100358.72
2023-12-09T03:20:46.325Z,100361.72
2023-12-09T03:23:13.425Z,100361.72
2023-12-09T03:25:40.377Z,100360.56
2023-12-09T03:28:07.537Z,100350.31
2023-12-09T03:30:34.704Z,100355.16
2023-12-09T03:33:02.433Z,100349.16
2023-12-09T03:35:29.563Z,100342.47
2023-12-09T03:37:56.649Z,100366.31
2023-12-09T03:40:23.619Z,100367.72
2023-12-09T03:42:50.770Z,100367.38
2023-12-09T03:45:17.918Z,100354.47
2023-12-09T03:47:46.112Z,100354.56
2023-12-09T03:50:13.586Z,100336.47
2023-12-09T03:52:40.782Z,100337.41
2023-12-09T03:55:07.983Z,100332.13
2023-12-09T03:57:35.124Z,100326.25
2023-12-09T04:00:04.929Z,100314.97
2023-12-09T04:02:32.148Z,100315.50
2023-12-09T04:05:00.341Z,100323.13
2023-12-09T04:07:28.011Z,100321.88
2023-12-09T04:09:55.205Z,100308.28
2023-12-09T04:12:22.321Z,100317.94
2023-12-09T04:14:49.313Z,100325.28
2023-12-09T04:17:16.397Z,100318.25
2023-12-09T04:19:43.531Z,100328.97
2023-12-09T04:22:10.690Z,100328.03
2023-12-09T04:24:37.798Z,100325.03
2023-12-09T04:27:05.139Z,100324.13
2023-12-09T04:29:32.114Z,100322.84
2023-12-09T04:32:00.171Z,100319.16
2023-12-09T04:34:27.654Z,100325.28
2023-12-09T04:36:54.752Z,100316.31
2023-12-09T04:39:21.888Z,100314.00
2023-12-09T04:41:49.232Z,100313.53
2023-12-09T04:44:16.288Z,100317.13
2023-12-09T04:46:43.357Z,100315.97
2023-12-09T04:49:10.669Z,100311.81
2023-12-09T04:51:37.898Z,100312.41
2023-12-09T04:54:05.192Z,100302.38
2023-12-09T04:56:32.502Z,100294.78
2023-12-09T04:58:59.536Z,100289.94
2023-12-09T05:01:27.021Z,100284.75
2023-12-09T05:03:54.323Z,100283.25
2023-12-09T05:06:21.633Z,100276.47
2023-12-09T05:08:48.784Z,100281.31
2023-12-09T05:11:15.872Z,100291.47
2023-12-09T05:13:42.886Z,100290.66
2023-12-09T05:16:10.105Z,100297.91
2023-12-09T05:18:37.241Z,100291.00
2023-12-09T05:21:06.598Z,100271.84
2023-12-09T05:23:34.503Z,100267.72
2023-12-09T05:26:01.830Z,100264.72
2023-12-09T05:28:28.850Z,100264.03
2023-12-09T05:30:56.132Z,100253.41
2023-12-09T05:33:24.021Z,100247.28
2023-12-09T05:35:51.024Z,100251.31
2023-12-09T05:38:18.354Z,100246.59
2023-12-09T05:40:45.448Z,100248.66
2023-12-09T05:43:12.433Z,100236.53
2023-12-09T05:45:39.671Z,100233.31
2023-12-09T05:48:06.950Z,100220.63
2023-12-09T05:50:33.973Z,100215.22
2023-12-09T05:53:02.507Z,100217.53
2023-12-09T05:55:29.737Z,100206.47
2023-12-09T05:57:56.735Z,100197.34
2023-12-09T06:00:23.907Z,100185.94
2023-12-09T06:02:50.955Z,100189.50
2023-12-09T06:05:17.943Z,100178.81
2023-12-09T06:07:45.009Z,100172.09
2023-12-09T06:10:14.409Z,100179.25
2023-12-09T06:12:42.627Z,100171.75
2023-12-09T06:15:10.065Z,100162.75
2023-12-09T06:17:37.372Z,100165.97
2023-12-09T06:20:08.580Z,100154.91
2023-12-09T06:22:35.829Z,100150.63
2023-12-09T06:25:02.918Z,100143.13
2023-12-09T06:27:29.986Z,100130.44
2023-12-09T06:29:57.595Z,100124.59
2023-12-09T06:32:24.863Z,100128.13
2023-12-09T06:34:52.081Z,100133.34
2023-12-09T06:37:19.148Z,100113.28
2023-12-09T06:39:46.237Z,100097.47
2023-12-09T06:42:15.319Z,100084.81
2023-12-09T06:44:42.978Z,100088.13
2023-12-09T06:47:13.168Z,100079.91
2023-12-09T06:49:40.213Z,100067.69
2023-12-09T06:52:07.342Z,100058.56
2023-12-09T06:54:34.644Z,100061.00
2023-12-09T06:57:01.686Z,100048.03
2023-12-09T06:59:28.789Z,100042.41
2023-12-09T07:01:59.207Z,100043.22
2023-12-09T07:04:26.855Z,100034.56
2023-12-09T07:06:53.976Z,100035.72
2023-12-09T07:09:21.103Z,100026.34
2023-12-09T07:11:48.097Z,100023.22
2023-12-09T07:14:29.356Z,100033.50
2023-12-09T07:16:56.415Z,100034.03
2023-12-09T07:19:23.547Z,100019.38
2023-12-09T07:21:52.550Z,100027.69
2023-12-09T07:24:19.764Z,100032.06
2023-12-09T07:26:46.807Z,100023.78
2023-12-09T07:29:14.116Z,100015.19
2023-12-09T07:31:41.155Z,100010.81
2023-12-09T07:34:08.432Z,99999.38
2023-12-09T07:36:35.954Z,100002.13
2023-12-09T07:39:03.328Z,99993.13
2023-12-09T07:41:30.911Z,99990.44
2023-12-09T07:43:58.150Z,99981.00
2023-12-09T07:46:25.120Z,99984.53
2023-12-09T07:48:52.313Z,99975.06
2023-12-09T07:51:19.657Z,99983.47
2023-12-09T07:53:46.620Z,99990.59
2023-12-09T07:56:13.741Z,99980.44
2023-12-09T07:58:40.954Z,99978.09
2023-12-09T08:01:11.015Z,99968.16
2023-12-09T08:03:39.024Z,99975.31
2023-12-09T08:06:08.456Z,99974.25
2023-12-09T08:08:36.402Z,99969.13
2023-12-09T08:11:04.498Z,99951.47
2023-12-09T08:13:31.602Z,99939.91
2023-12-09T08:15:58.979Z,99934.84
2023-12-09T08:18:27.694Z,99923.00
2023-12-09T08:20:56.209Z,99911.50
2023-12-09T08:23:23.313Z,99918.66
2023-12-09T08:25:51.276Z,99904.44
2023-12-09T08:28:18.486Z,99899.69
2023-12-09T08:30:48.239Z,99901.38
2023-12-09T08:33:15.535Z,99905.75
2023-12-09T08:35:42.825Z,99893.88
2023-12-09T08:38:09.807Z,99891.91
2023-12-09T08:40:36.883Z,99884.13
2023-12-09T08:43:04.098Z,99886.94
2023-12-09T08:45:33.136Z,99878.63
2023-12-09T08:48:00.424Z,99873.53
2023-12-09T08:50:27.578Z,99865.22
2023-12-09T08:52:55.122Z,99857.44
2023-12-09T08:55:22.931Z,99851.09
2023-12-09T08:57:51.634Z,99857.06
2023-12-09T09:00:22.562Z,99848.81
2023-12-09T09:02:51.274Z,99845.66
2023-12-09T09:05:18.465Z,99853.59
2023-12-09T09:07:45.952Z,99841.38
2023-12-09T09:10:13.135Z,99843.31
2023-12-09T09:12:40.314Z,99850.47
2023-12-09T09:15:09.305Z,99844.94
2023-12-09T09:17:37.201Z,99841.38
2023-12-09T09:20:07.026Z,99826.28
2023-12-09T09:22:35.001Z,99829.13
2023-12-09T09:25:02.729Z,99818.03
2023-12-09T09:27:30.113Z,99811.31
2023-12-09T09:29:57.539Z,99801.03
2023-12-09T09:32:24.784Z,99790.81
2023-12-09T09:34:52.109Z,99783.75
2023-12-09T09:37:19.221Z,99784.16
2023-12-09T09:39:46.721Z,99776.34
2023-12-09T09:42:19.902Z,99768.38
2023-12-09T09:45:23.785Z,99768.03
2023-12-09T09:47:56.799Z,99766.84
2023-12-09T09:50:26.119Z,99760.06
2023-12-09T09:52:54.306Z,99753.00
2023-12-09T09:55:23.699Z,99738.78
2023-12-09T09:57:50.771Z,99739.19
2023-12-09T10:00:21.024Z,99736.13
2023-12-09T10:02:50.995Z,99730.63
2023-12-09T10:05:21.705Z,99738.63
2023-12-09T10:07:49.021Z,99729.13
2023-12-09T10:10:18.175Z,99715.72
2023-12-09T10:12:46.061Z,99711.75
2023-12-09T10:15:13.560Z,99710.22
2023-12-09T10:17:41.065Z,99709.84
2023-12-09T10:20:10.200Z,99705.53
2023-12-09T10:22:38.495Z,99699.19
2023-12-09T10:25:06.198Z,99686.53
2023-12-09T10:27:34.190Z,99684.19
2023-12-09T10:30:02.255Z,99675.19
2023-12-09T10:32:30.089Z,99676.41
2023-12-09T10:34:59.649Z,99665.69
2023-12-09T10:37:28.412Z,99652.63
2023-12-09T10:39:55.769Z,99655.78
2023-12-09T10:42:24.551Z,99657.00
2023-12-09T10:44:51.868Z,99748.94
2023-12-09T10:47:18.895Z,99747.75
2023-12-09T10:49:45.982Z,99733.16
2023-12-09T10:52:13.279Z,99720.50
2023-12-09T10:54:41.001Z,99707.84
2023-12-09T10:57:09.077Z,99697.22
2023-12-09T10:59:36.411Z,99677.81
2023-12-09T11:02:03.783Z,99667.94
2023-12-09T11:04:31.566Z,99652.16
2023-12-09T11:07:01.381Z,99651.75
2023-12-09T11:09:28.540Z,99644.25
2023-12-09T11:11:55.844Z,99620.06
2023-12-09T11:14:27.658Z,99622.09
2023-12-09T11:16:55.493Z,99620.91
2023-12-09T11:19:24.169Z,99616.97
2023-12-09T11:21:51.407Z,99607.13
2023-12-09T11:24:20.038Z,99594.03
2023-12-09T11:26:47.969Z,99586.16
2023-12-09T11:29:19.660Z,99575.47
2023-12-09T11:31:51.718Z,99568.38
2023-12-09T11:34:21.572Z,99562.00
2023-12-09T11:36:52.581Z,99553.28
2023-12-09T11:39:21.985Z,99535.00
2023-12-09T11:41:50.494Z,99513.13
2023-12-09T11:44:17.972Z,99504.00
2023-12-09T11:46:47.103Z,99496.78
2023-12-09T11:49:14.668Z,99499.91
2023-12-09T11:51:42.029Z,99485.22
2023-12-09T11:54:10.946Z,99478.44
2023-12-09T11:56:40.070Z,99480.38
2023-12-09T11:59:07.773Z,99468.47
2023-12-09T12:01:37.508Z,99461.75
2023-12-09T12:04:05.422Z,99455.38
2023-12-09T12:06:34.194Z,99445.88
2023-12-09T12:09:01.552Z,99425.25
2023-12-09T12:11:28.702Z,99417.31
2023-12-09T12:13:56.430Z,99426.81
2023-12-09T12:16:23.921Z,99421.31
2023-12-09T12:18:51.260Z,99410.16
2023-12-09T12:21:18.644Z,99410.97
2023-12-09T12:23:45.917Z,99370.97
2023-12-09T12:26:14.595Z,99378.13
2023-12-09T12:28:42.068Z,99371.81
2023-12-09T12:31:12.173Z,99353.56
2023-12-09T12:33:41.635Z,99333.34
2023-12-09T12:36:09.870Z,99309.59
2023-12-09T12:38:37.066Z,99303.59
2023-12-09T12:41:04.421Z,99294.88
2023-12-09T12:43:32.709Z,99289.28
2023-12-09T12:46:01.074Z,99281.72
2023-12-09T12:48:29.089Z,99269.00
2023-12-09T12:50:57.091Z,99258.31
2023-12-09T12:53:26.762Z,99246.00
2023-12-09T12:55:56.301Z,99247.56
2023-12-09T12:58:24.326Z,99240.84
2023-12-09T13:00:54.073Z,99226.19
2023-12-09T13:03:21.685Z,99219.06
2023-12-09T13:05:49.109Z,99188.94
2023-12-09T13:08:16.238Z,99171.88
2023-12-09T13:10:44.460Z,99174.63
2023-12-09T13:13:11.695Z,99145.34
2023-12-09T13:15:38.738Z,99144.13
2023-12-09T13:18:06.568Z,99161.16
2023-12-09T13:20:33.682Z,99158.41
2023-12-09T13:23:00.782Z,99046.69
2023-12-09T13:25:27.891Z,99064.53
2023-12-09T13:27:55.042Z,99070.84
2023-12-09T13:30:23.195Z,99074.81
2023-12-09T13:32:50.335Z,99045.13
2023-12-09T13:35:17.505Z,99036.44
2023-12-09T13:37:44.735Z,98988.50
2023-12-09T13:40:15.440Z,98961.16
2023-12-09T13:42:42.782Z,98953.66
2023-12-09T13:45:10.634Z,98927.91
2023-12-09T13:47:37.818Z,98900.19
2023-12-09T13:50:06.867Z,98917.59
2023-12-09T13:52:35.208Z,98906.53
2023-12-09T13:55:02.691Z,98895.06
2023-12-09T13:57:30.747Z,98853.06
2023-12-09T13:59:58.875Z,98842.38
2023-12-09T14:02:26.681Z,98825.72
2023-12-09T14:04:54.233Z,98822.97
2023-12-09T14:07:22.250Z,98802.38
2023-12-09T14:09:49.373Z,98767.94
2023-12-09T14:12:16.674Z,98768.72
2023-12-09T14:14:43.712Z,98739.00
2023-12-09T14:17:13.129Z,98735.03
2023-12-09T14:19:40.635Z,98716.84
2023-12-09T14:22:09.482Z,98705.34
2023-12-09T14:24:37.190Z,98688.31
2023-12-09T14:27:05.300Z,98689.91
2023-12-09T14:29:33.102Z,98680.00
2023-12-09T14:32:02.322Z,98665.38
2023-12-09T14:34:30.520Z,98640.03
2023-12-09T14:36:57.657Z,98614.31
2023-12-09T14:39:25.882Z,98646.38
2023-12-09T14:41:53.068Z,98617.88
2023-12-09T14:44:20.208Z,98621.03
2023-12-09T14:46:47.420Z,98615.09
2023-12-09T14:49:14.702Z,98613.50
2023-12-09T14:51:44.313Z,98610.72
2023-12-09T14:54:17.377Z,98609.16
2023-12-09T14:56:46.502Z,98586.63
2023-12-09T14:59:13.919Z,98592.91
2023-12-09T15:01:41.322Z,98596.09
2023-12-09T15:04:08.711Z,98617.09
2023-12-09T15:06:35.883Z,98616.28
2023-12-09T15:09:04.565Z,98617.84
2023-12-09T15:11:31.618Z,98619.47
2023-12-09T15:13:58.522Z,98618.66
2023-12-09T15:16:25.814Z,98599.25
2023-12-09T15:18:53.055Z,98588.56
2023-12-09T15:21:21.212Z,98560.84
2023-12-09T15:23:48.285Z,98580.66
2023-12-09T15:26:15.511Z,98587.38
2023-12-09T15:28:42.544Z,98590.16
2023-12-09T15:31:09.524Z,98596.13
2023-12-09T15:33:36.964Z,98587.81
2023-12-09T15:36:04.774Z,98575.13
2023-12-09T15:38:32.742Z,98573.94
2023-12-09T15:40:59.707Z,98572.34
2023-12-09T15:43:27.062Z,98577.91
2023-12-09T15:45:56.170Z,98572.34
2023-12-09T15:48:27.423Z,98601.63
2023-12-09T15:50:54.992Z,98611.91
2023-12-09T15:53:21.929Z,98613.13
2023-12-09T15:55:49.335Z,98626.97
2023-12-09T15:58:16.586Z,98621.81
2023-12-09T16:00:43.642Z,98617.88
2023-12-09T16:03:13.212Z,98622.22
2023-12-09T16:05:40.925Z,98606.00
2023-12-09T16:08:08.055Z,98604.41
2023-12-09T16:10:35.062Z,98596.09
2023-12-09T16:13:04.400Z,98579.06
2023-12-09T16:15:31.873Z,98584.22
2023-12-09T16:17:59.860Z,98578.66
2023-12-09T16:20:27.473Z,98584.19
2023-12-09T16:22:54.489Z,98572.34
2023-12-09T16:25:21.430Z,98575.50
2023-12-09T16:27:48.812Z,98564.41
2023-12-09T16:30:15.894Z,98571.50
2023-12-09T16:32:43.060Z,98567.16
2023-12-09T16:35:10.758Z,98558.03
2023-12-09T16:37:37.762Z,98550.91
2023-12-09T16:40:05.236Z,98548.94
2023-12-09T16:42:32.976Z,98546.94
2023-12-09T16:45:00.200Z,98559.22
2023-12-09T16:47:35.037Z,98555.22
2023-12-09T16:50:02.570Z,98550.88
2023-12-09T16:52:29.933Z,98552.41
2023-12-09T16:54:57.561Z,98558.34
2023-12-09T16:57:24.938Z,98565.88
2023-12-09T16:59:52.058Z,98552.00
2023-12-09T17:02:19.186Z,98561.84
2023-12-09T17:04:46.307Z,98567.38
2023-12-09T17:07:13.460Z,98558.63
2023-12-09T17:09:40.586Z,98566.56
2023-12-09T17:12:08.263Z,98569.31
2023-12-09T17:14:35.271Z,98568.13
2023-12-09T17:17:03.868Z,98561.72
2023-12-09T17:19:31.591Z,98569.22
2023-12-09T17:21:58.687Z,98567.66
2023-12-09T17:24:25.784Z,98567.59
2023-12-09T17:26:53.113Z,98582.53
2023-12-09T17:29:20.343Z,98571.75
2023-12-09T17:31:48.432Z,98591.31
2023-12-09T17:34:15.923Z,98588.00
2023-12-09T17:36:43.028Z,98584.50
2023-12-09T17:39:11.612Z,98599.34
2023-12-09T17:41:38.696Z,98597.19
2023-12-09T17:44:05.744Z,98604.69
2023-12-09T17:46:32.793Z,98595.03
2023-12-09T17:48:59.929Z,98592.91
2023-12-09T17:51:27.236Z,98576.91
2023-12-09T17:53:54.282Z,98562.84
2023-12-09T17:56:21.420Z,98555.69
2023-12-09T17:58:54.524Z,98535.38
2023-12-09T18:01:25.886Z,98529.69
2023-12-09T18:03:53.183Z,98516.50
2023-12-09T18:06:20.578Z,98498.63
2023-12-09T18:08:47.576Z,98483.03
2023-12-09T18:11:14.641Z,98478.75
2023-12-09T18:13:41.643Z,98471.72
2023-12-09T18:16:10.049Z,98458.41
2023-12-09T18:18:37.558Z,98453.34
2023-12-09T18:21:04.734Z,98454.66
2023-12-09T18:23:31.705Z,98457.88
2023-12-09T18:25:58.799Z,98452.06
2023-12-09T18:28:25.893Z,98451.41
2023-12-09T18:30:52.922Z,98447.50
2023-12-09T18:33:20.115Z,98447.25
2023-12-09T18:35:47.315Z,98449.16
2023-12-09T18:38:14.454Z,98446.09
2023-12-09T18:40:41.568Z,98463.59
2023-12-09T18:43:09.599Z,98481.84
2023-12-09T18:45:37.036Z,98507.72
2023-12-09T18:48:04.490Z,98529.56
2023-12-09T18:50:31.595Z,98563.41
2023-12-09T18:52:59.461Z,98608.75
2023-12-09T18:55:26.836Z,98740.31
2023-12-09T18:57:54.067Z,98758.59
2023-12-09T19:00:21.219Z,98782.50
2023-12-09T19:02:48.395Z,98808.38
2023-12-09T19:05:15.548Z,98819.09
2023-12-09T19:07:42.534Z,98821.06
2023-12-09T19:10:09.938Z,98818.28
2023-12-09T19:12:37.046Z,98844.78
2023-12-09T19:15:04.321Z,98859.44
2023-12-09T19:17:31.459Z,98875.31
2023-12-09T19:19:58.555Z,98879.28
2023-12-09T19:22:25.967Z,98886.88
2023-12-09T19:24:53.249Z,98901.53
2023-12-09T19:27:20.340Z,98916.19
2023-12-09T19:29:47.309Z,98918.59
2023-12-09T19:32:16.005Z,98930.09
2023-12-09T19:34:43.064Z,98938.81
2023-12-09T19:37:10.118Z,98936.47
2023-12-09T19:39:37.287Z,98955.50
2023-12-09T19:42:04.804Z,98959.91
2023-12-09T19:44:31.812Z,98977.75
2023-12-09T19:46:59.669Z,98988.84
2023-12-09T19:49:27.346Z,99005.97
2023-12-09T19:51:54.524Z,99017.09
2023-12-09T19:54:21.789Z,99007.91
2023-12-09T19:56:48.804Z,99020.25
2023-12-09T19:59:15.909Z,99032.56
2023-12-09T20:01:43.053Z,99036.91
2023-12-09T20:04:10.139Z,99044.88
2023-12-09T20:06:37.865Z,99046.84
2023-12-09T20:09:05.819Z,99057.94
2023-12-09T20:11:32.914Z,99072.28
2023-12-09T20:14:00.106Z,99075.06
2023-12-09T20:16:27.385Z,99072.31
2023-12-09T20:18:54.545Z,99079.44
2023-12-09T20:21:21.743Z,99088.59
2023-12-09T20:23:49.490Z,99093.75
2023-12-09T20:26:17.372Z,99125.88
2023-12-09T20:28:44.348Z,99114.75
2023-12-09T20:31:14.451Z,99119.97
2023-12-09T20:33:41.969Z,99129.13
2023-12-09T20:36:09.445Z,99123.16
2023-12-09T20:38:36.872Z,99135.91
2023-12-09T20:41:04.056Z,99140.28
2023-12-09T20:43:32.768Z,99159.72
2023-12-09T20:46:01.896Z,99164.09
2023-12-09T20:48:29.157Z,99179.63
2023-12-09T20:50:56.852Z,99182.78
2023-12-09T20:53:23.906Z,99180.81
2023-12-09T20:55:50.900Z,99178.03
2023-12-09T20:58:17.913Z,99188.78
2023-12-09T21:00:45.013Z,99195.13
2023-12-09T21:03:12.242Z,99190.00
2023-12-09T21:05:39.322Z,99212.63
2023-12-09T21:08:06.561Z,99215.81
2023-12-09T21:10:33.571Z,99222.97
2023-12-09T21:13:00.563Z,99224.16
2023-12-09T21:15:27.802Z,99238.09
2023-12-09T21:17:55.037Z,99229.75
2023-12-09T21:20:22.468Z,99261.50
2023-12-09T21:22:51.289Z,99255.94
2023-12-09T21:25:18.319Z,99277.03
2023-12-09T21:27:45.364Z,99280.97
2023-12-09T21:30:12.702Z,99291.66
2023-12-09T21:32:40.500Z,99287.28
2023-12-09T21:35:07.705Z,99290.47
2023-12-09T21:37:35.544Z,99305.16
2023-12-09T21:40:02.622Z,99304.38
2023-12-09T21:42:30.024Z,99312.72
2023-12-09T21:44:58.003Z,99314.31
2023-12-09T21:47:25.314Z,99327.78
2023-12-09T21:49:52.571Z,99318.59
2023-12-09T21:52:20.789Z,99331.78
2023-12-09T21:54:51.009Z,99340.91
2023-12-09T21:57:18.112Z,99341.38
2023-12-09T21:59:45.087Z,99374.72
2023-12-09T22:02:12.528Z,99352.47
2023-12-09T22:04:39.537Z,99356.41
2023-12-09T22:07:06.473Z,99358.78
2023-12-09T22:09:33.513Z,99359.94
2023-12-09T22:12:00.705Z,99356.00
2023-12-09T22:14:27.711Z,99356.34
2023-12-09T22:16:54.735Z,99357.59
2023-12-09T22:19:21.950Z,99362.75
2023-12-09T22:21:49.806Z,99366.72
2023-12-09T22:24:16.888Z,99366.28
2023-12-09T22:26:45.410Z,99371.06
2023-12-09T22:29:12.747Z,99372.69
2023-12-09T22:31:45.965Z,99367.56
2023-12-09T22:34:13.144Z,99382.66
2023-12-09T22:36:40.378Z,99391.84
2023-12-09T22:39:13.652Z,99397.00
2023-12-09T22:41:41.089Z,99393.00
2023-12-09T22:44:08.060Z,99408.13
2023-12-09T22:46:35.206Z,99403.41
2023-12-09T22:49:03.365Z,99414.94
2023-12-09T22:51:31.729Z,99416.09
2023-12-09T22:53:58.842Z,99422.47
2023-12-09T22:56:27.615Z,99418.91
2023-12-09T22:58:56.526Z,99432.41
2023-12-09T23:01:28.967Z,99428.06
2023-12-09T23:03:56.281Z,99428.47
2023-12-09T23:06:23.860Z,99436.00
2023-12-09T23:08:51.157Z,99431.66
2023-12-09T23:11:18.167Z,99443.97
2023-12-09T23:13:45.239Z,99437.22
2023-12-09T23:16:12.714Z,99472.63
2023-12-09T23:18:41.293Z,99475.41
2023-12-09T23:21:10.149Z,99463.81
2023-12-09T23:23:37.451Z,99459.00
2023-12-09T23:26:04.698Z,99430.09
2023-12-09T23:28:32.239Z,99399.78
2023-12-09T23:30:59.255Z,99399.34
2023-12-09T23:33:27.020Z,99397.38
2023-12-09T23:35:54.206Z,99384.66
2023-12-09T23:38:22.378Z,99363.56
2023-12-09T23:40:49.343Z,99369.09
2023-12-09T23:43:16.403Z,99367.16
2023-12-09T23:45:44.330Z,99372.31
2023-12-09T23:48:13.550Z,99369.09
2023-12-09T23:50:40.691Z,99367.94
2023-12-09T23:53:07.696Z,99371.91
2023-12-09T23:55:34.689Z,99362.75
2023-12-09T23:58:01.784Z,99369.47
